createdAt,value
2022-08-11T00:01:08.340Z,19.01
2022-08-11T00:03:43.179Z,18.88
2022-08-11T00:06:14.309Z,18.85
2022-08-11T00:08:43.724Z,18.86
2022-08-11T00:11:12.734Z,18.85
2022-08-11T00:13:43.133Z,18.87
2022-08-11T00:16:19.690Z,18.95
2022-08-11T00:18:52.385Z,18.96
2022-08-11T00:22:03.035Z,18.89
2022-08-11T00:24:09.753Z,18.85
2022-08-11T00:26:36.966Z,18.85
2022-08-11T00:29:13.430Z,18.86
2022-08-11T00:31:50.770Z,18.81
2022-08-11T00:34:25.133Z,18.81
2022-08-11T00:37:08.833Z,18.72
2022-08-11T00:40:03.673Z,18.67
2022-08-11T00:42:56.954Z,18.63
2022-08-11T00:45:42.525Z,18.61
2022-08-11T00:48:31.057Z,18.62
2022-08-11T00:51:20.437Z,18.54
2022-08-11T00:54:06.383Z,18.59
2022-08-11T00:57:37.780Z,18.55
2022-08-11T01:00:19.446Z,18.49
2022-08-11T01:03:07.529Z,18.40
2022-08-11T01:06:00.455Z,18.42
2022-08-11T01:09:00.755Z,18.37
2022-08-11T01:12:07.983Z,18.33
2022-08-11T01:14:54.142Z,18.25
2022-08-11T01:17:27.029Z,18.20
2022-08-11T01:20:47.307Z,18.22
2022-08-11T01:23:53.212Z,18.22
2022-08-11T01:26:58.135Z,18.25
2022-08-11T01:29:49.239Z,18.21
2022-08-11T01:32:29.364Z,18.17
2022-08-11T01:35:37.827Z,18.19
2022-08-11T01:38:26.474Z,18.18
2022-08-11T01:41:23.383Z,18.17
2022-08-11T01:44:17.977Z,18.08
2022-08-11T01:46:52.193Z,18.04
2022-08-11T01:50:09.656Z,17.98
2022-08-11T01:53:16.245Z,18.07
2022-08-11T01:55:57.982Z,18.00
2022-08-11T01:58:43.261Z,17.98
2022-08-11T02:01:23.262Z,17.97
2022-08-11T02:04:16.213Z,17.83
2022-08-11T02:06:55.170Z,17.83
2022-08-11T02:09:49.787Z,17.84
2022-08-11T02:12:27.908Z,17.71
2022-08-11T02:15:20.807Z,17.64
2022-08-11T02:17:57.251Z,17.51
2022-08-11T02:20:48.996Z,17.52
2022-08-11T02:24:03.742Z,17.47
2022-08-11T02:26:41.424Z,17.40
2022-08-11T02:29:35.454Z,17.33
2022-08-11T02:32:38.820Z,17.26
2022-08-11T02:35:29.284Z,17.29
2022-08-11T02:38:11.523Z,17.14
2022-08-11T02:41:28.889Z,17.31
2022-08-11T02:44:20.976Z,17.20
2022-08-11T02:47:23.951Z,17.14
2022-08-11T02:50:02.555Z,17.26
2022-08-11T02:52:46.704Z,17.10
2022-08-11T02:55:44.569Z,17.11
2022-08-11T02:58:32.034Z,16.98
2022-08-11T03:01:16.930Z,17.05
2022-08-11T03:04:17.966Z,17.10
2022-08-11T03:07:01.986Z,17.04
2022-08-11T03:09:37.738Z,17.03
2022-08-11T03:12:32.673Z,17.08
2022-08-11T03:15:29.386Z,17.00
2022-08-11T03:18:14.739Z,17.07
2022-08-11T03:21:07.833Z,17.02
2022-08-11T03:23:49.945Z,16.96
2022-08-11T03:26:56.450Z,16.94
2022-08-11T03:29:40.973Z,16.94
2022-08-11T03:32:30.094Z,16.92
2022-08-11T03:35:02.830Z,16.84
2022-08-11T03:38:00.264Z,16.80
2022-08-11T03:41:02.051Z,16.83
2022-08-11T03:43:58.966Z,16.87
2022-08-11T03:46:59.487Z,16.82
2022-08-11T03:49:44.993Z,16.78
2022-08-11T03:52:22.947Z,16.76
2022-08-11T03:55:11.040Z,16.80
2022-08-11T03:58:20.400Z,16.80
2022-08-11T04:01:06.161Z,16.68
2022-08-11T04:04:10.274Z,16.69
2022-08-11T04:06:47.614Z,16.69
2022-08-11T04:09:46.868Z,16.70
2022-08-11T04:12:45.618Z,16.66
2022-08-11T04:15:52.107Z,16.75
2022-08-11T04:18:39.421Z,16.86
2022-08-11T04:21:27.582Z,16.86
2022-08-11T04:24:35.261Z,16.86
2022-08-11T04:27:24.395Z,16.81
2022-08-11T04:30:41.457Z,16.97
2022-08-11T04:33:36.642Z,17.05
2022-08-11T04:36:09.736Z,17.12
2022-08-11T04:38:58.828Z,17.19
2022-08-11T04:42:03.773Z,17.24
2022-08-11T04:44:33.688Z,17.29
2022-08-11T04:48:01.750Z,17.48
2022-08-11T04:51:09.056Z,17.54
2022-08-11T04:54:16.275Z,17.59
2022-08-11T04:57:06.045Z,17.66
2022-08-11T05:00:24.064Z,17.79
2022-08-11T05:03:09.466Z,17.81
2022-08-11T05:05:56.340Z,18.05
2022-08-11T05:08:50.360Z,18.06
2022-08-11T05:11:48.091Z,18.18
2022-08-11T05:14:36.294Z,18.33
2022-08-11T05:18:04.890Z,18.45
2022-08-11T05:21:05.019Z,18.54
2022-08-11T05:23:54.087Z,18.68
2022-08-11T05:26:46.524Z,18.72
2022-08-11T05:29:47.555Z,18.76
2022-08-11T05:32:36.462Z,18.86
2022-08-11T05:35:07.608Z,19.12
2022-08-11T05:38:04.793Z,19.14
2022-08-11T05:40:53.304Z,19.14
2022-08-11T05:44:20.216Z,19.22
2022-08-11T05:46:59.900Z,19.25
2022-08-11T05:49:50.334Z,19.48
2022-08-11T05:52:41.709Z,19.52
2022-08-11T05:55:29.185Z,19.72
2022-08-11T05:57:57.707Z,19.62
2022-08-11T06:00:24.954Z,19.73
2022-08-11T06:02:57.071Z,19.67
2022-08-11T06:05:25.798Z,19.73
2022-08-11T06:07:57.272Z,19.82
2022-08-11T06:10:36.121Z,19.80
2022-08-11T08:07:45.133Z,24.72
2022-08-11T08:12:35.190Z,24.93
2022-08-11T08:15:26.576Z,24.93
2022-08-11T09:38:15.610Z,27.91
2022-08-11T09:40:45.318Z,27.91
2022-08-11T09:43:38.972Z,27.80
2022-08-11T09:46:07.378Z,28.20
2022-08-11T09:54:55.641Z,27.54
2022-08-11T09:57:42.450Z,27.54
2022-08-11T10:00:13.157Z,26.71
2022-08-11T10:02:47.437Z,26.38
2022-08-11T10:05:37.033Z,26.72
2022-08-11T10:11:15.394Z,28.45
2022-08-11T10:14:32.882Z,28.45
2022-08-11T10:48:42.552Z,28.73
2022-08-11T10:51:15.809Z,28.73
2022-08-11T10:54:21.279Z,28.83
2022-08-11T10:57:06.974Z,28.57
2022-08-11T10:59:34.381Z,28.96
2022-08-11T11:02:02.188Z,29.17
2022-08-11T11:04:51.002Z,28.68
2022-08-11T11:07:22.565Z,27.89
2022-08-11T11:09:54.550Z,28.50
2022-08-11T11:12:52.245Z,28.79
2022-08-11T11:15:41.095Z,28.89
2022-08-11T11:18:24.099Z,28.88
2022-08-11T11:20:57.683Z,28.81
2022-08-11T11:23:50.159Z,29.18
2022-08-11T11:26:43.657Z,29.32
2022-08-11T11:29:44.684Z,29.55
2022-08-11T11:32:27.814Z,28.77
2022-08-11T11:35:16.224Z,28.73
2022-08-11T11:38:03.850Z,29.39
2022-08-11T11:40:33.053Z,28.96
2022-08-11T11:43:00.992Z,29.01
2022-08-11T11:45:28.512Z,29.51
2022-08-11T11:47:59.139Z,29.32
2022-08-11T11:50:34.555Z,29.82
2022-08-11T11:53:05.972Z,29.37
2022-08-11T11:55:33.346Z,29.61
2022-08-11T11:58:22.095Z,28.94
2022-08-11T12:01:09.625Z,28.77
2022-08-11T12:03:38.146Z,29.46
2022-08-11T12:06:07.106Z,29.34
2022-08-11T12:08:34.943Z,29.20
2022-08-11T12:11:27.662Z,29.35
2022-08-11T12:13:57.756Z,29.87
2022-08-11T12:16:34.260Z,29.94
2022-08-11T12:19:24.136Z,29.33
2022-08-11T12:22:11.288Z,28.71
2022-08-11T12:24:58.057Z,28.56
2022-08-11T12:27:27.210Z,28.37
2022-08-11T12:30:11.585Z,27.94
2022-08-11T12:32:43.941Z,27.72
2022-08-11T12:35:14.765Z,27.06
2022-08-11T12:37:48.358Z,26.57
2022-08-11T12:41:13.714Z,26.77
2022-08-11T12:43:56.329Z,27.12
2022-08-11T12:57:36.758Z,29.33
2022-08-11T13:00:27.291Z,29.33
2022-08-11T13:12:10.099Z,27.44
2022-08-11T13:14:37.183Z,27.44
2022-08-11T13:17:43.953Z,26.80
2022-08-11T13:20:13.378Z,26.69
2022-08-11T13:22:45.806Z,26.68
2022-08-11T14:04:29.734Z,28.20
2022-08-11T14:06:22.244Z,28.20
2022-08-11T14:08:53.374Z,28.19
2022-08-11T14:12:21.720Z,28.47
2022-08-11T14:14:33.186Z,28.82
2022-08-11T14:17:05.473Z,28.62
2022-08-11T14:19:35.578Z,28.12
2022-08-11T14:22:08.651Z,28.32
2022-08-11T14:24:49.557Z,28.41
2022-08-11T14:28:22.086Z,27.83
2022-08-11T14:30:05.569Z,27.86
2022-08-11T14:36:44.416Z,28.23
2022-08-11T14:39:18.652Z,28.23
2022-08-11T14:42:12.246Z,27.72
2022-08-11T14:45:02.502Z,27.94
2022-08-11T14:47:32.678Z,27.68
2022-08-11T14:50:10.974Z,27.71
2022-08-11T14:52:44.934Z,27.58
2022-08-11T14:55:32.574Z,27.19
2022-08-11T14:58:01.904Z,27.35
2022-08-11T15:00:30.215Z,27.44
2022-08-11T15:03:11.020Z,27.35
2022-08-11T15:05:57.576Z,27.27
2022-08-11T15:08:47.632Z,26.97
2022-08-11T15:11:36.457Z,27.05
2022-08-11T15:14:06.244Z,26.88
2022-08-11T15:16:51.910Z,26.89
2022-08-11T15:19:23.744Z,26.70
2022-08-11T15:22:09.396Z,26.49
2022-08-11T15:24:37.355Z,26.39
2022-08-11T15:27:27.663Z,26.35
2022-08-11T15:30:20.952Z,26.39
2022-08-11T15:33:23.551Z,26.52
2022-08-11T15:36:11.419Z,26.42
2022-08-11T15:38:44.954Z,26.52
2022-08-11T15:41:34.340Z,26.50
2022-08-11T15:44:44.601Z,26.58
2022-08-11T15:47:14.466Z,26.64
2022-08-11T15:50:10.797Z,26.78
2022-08-11T15:52:41.272Z,26.83
2022-08-11T15:55:09.343Z,26.92
2022-08-11T15:57:56.780Z,26.65
2022-08-11T16:00:43.778Z,26.47
2022-08-11T16:04:05.647Z,26.43
2022-08-11T16:06:22.504Z,26.30
2022-08-11T16:08:52.795Z,26.36
2022-08-11T16:11:21.693Z,26.27
2022-08-11T16:14:13.802Z,26.43
2022-08-11T16:16:41.880Z,26.36
2022-08-11T16:19:11.014Z,26.34
2022-08-11T16:27:12.300Z,26.40
2022-08-11T16:29:48.018Z,26.40
2022-08-11T16:32:23.388Z,25.91
2022-08-11T16:35:14.569Z,25.86
2022-08-11T16:38:00.847Z,25.61
2022-08-11T16:40:29.567Z,25.51
2022-08-11T16:43:16.816Z,25.37
2022-08-11T16:46:04.308Z,25.38
2022-08-11T16:48:38.177Z,25.35
2022-08-11T16:51:12.290Z,25.26
2022-08-11T16:54:01.339Z,25.18
2022-08-11T16:56:33.855Z,25.21
2022-08-11T16:59:17.335Z,25.16
2022-08-11T17:01:53.705Z,25.15
2022-08-11T17:05:09.804Z,25.21
2022-08-11T17:08:01.147Z,25.00
2022-08-11T17:11:04.042Z,25.02
2022-08-11T17:13:42.714Z,24.93
2022-08-11T17:16:13.783Z,24.84
2022-08-11T17:19:06.880Z,24.82
2022-08-11T17:22:00.561Z,24.73
2022-08-11T17:24:29.738Z,24.74
2022-08-11T17:26:58.204Z,24.63
2022-08-11T17:29:33.265Z,24.61
2022-08-11T17:32:25.061Z,24.49
2022-08-11T17:35:17.312Z,24.47
2022-08-11T17:37:47.313Z,24.22
2022-08-11T17:40:25.118Z,24.16
2022-08-11T17:43:15.524Z,24.11
2022-08-11T17:46:03.299Z,24.07
2022-08-11T17:48:33.780Z,23.98
2022-08-11T17:51:10.642Z,23.82
2022-08-11T17:54:10.175Z,23.60
2022-08-11T17:57:19.906Z,23.48
2022-08-11T17:59:53.119Z,23.36
2022-08-11T18:02:44.003Z,23.22
2022-08-11T18:05:13.676Z,23.18
2022-08-11T18:08:04.289Z,23.14
2022-08-11T18:10:50.971Z,23.22
2022-08-11T18:13:38.801Z,23.04
2022-08-11T18:16:25.458Z,22.96
2022-08-11T18:19:11.795Z,22.90
2022-08-11T18:22:14.173Z,22.86
2022-08-11T18:25:16.184Z,22.78
2022-08-11T18:28:06.342Z,22.74
2022-08-11T18:31:03.484Z,22.74
2022-08-11T18:34:14.909Z,22.55
2022-08-11T18:37:07.729Z,22.36
2022-08-11T18:40:00.228Z,22.31
2022-08-11T18:42:48.482Z,22.20
2022-08-11T18:45:45.360Z,22.19
2022-08-11T18:48:37.445Z,22.18
2022-08-11T18:51:31.066Z,22.24
2022-08-11T18:54:27.944Z,22.32
2022-08-11T18:57:16.780Z,22.24
2022-08-11T19:00:04.994Z,22.27
2022-08-11T19:02:54.418Z,22.27
2022-08-11T19:06:32.115Z,22.06
2022-08-11T19:08:53.637Z,22.14
2022-08-11T19:11:42.707Z,21.95
2022-08-11T19:14:34.436Z,21.98
2022-08-11T19:17:43.546Z,21.84
2022-08-11T19:20:32.024Z,21.85
2022-08-11T19:23:18.162Z,21.81
2022-08-11T19:26:05.546Z,21.81
2022-08-11T19:28:53.341Z,21.72
2022-08-11T19:31:44.489Z,21.58
2022-08-11T19:34:34.960Z,21.47
2022-08-11T19:37:24.818Z,21.35
2022-08-11T19:40:19.790Z,21.29
2022-08-11T19:43:18.557Z,21.09
2022-08-11T19:46:17.271Z,20.91
2022-08-11T19:49:04.951Z,20.74
2022-08-11T19:51:54.637Z,20.63
2022-08-11T19:54:46.356Z,20.54
2022-08-11T19:57:37.336Z,20.43
2022-08-11T20:00:38.069Z,20.25
2022-08-11T20:03:27.408Z,20.04
2022-08-11T20:06:16.156Z,19.84
2022-08-11T20:09:04.302Z,19.85
2022-08-11T20:11:55.561Z,19.67
2022-08-11T20:14:45.191Z,19.53
